createdAt,value
2023-01-08T00:00:03.907Z,8.43
2023-01-08T00:02:31.496Z,8.41
2023-01-08T00:04:59.144Z,8.41
2023-01-08T00:07:26.783Z,8.42
2023-01-08T00:09:54.988Z,8.50
2023-01-08T00:12:22.520Z,8.53
2023-01-08T00:14:51.479Z,8.53
2023-01-08T00:17:19.138Z,8.51
2023-01-08T00:19:46.769Z,8.48
2023-01-08T00:22:14.295Z,8.51
2023-01-08T00:24:42.020Z,8.47
2023-01-08T00:27:09.779Z,8.51
2023-01-08T00:29:37.552Z,8.60
2023-01-08T00:32:06.657Z,8.57
2023-01-08T00:34:34.272Z,8.58
2023-01-08T00:37:01.804Z,8.52
2023-01-08T00:39:29.401Z,8.54
2023-01-08T00:41:57.077Z,8.56
2023-01-08T00:44:24.735Z,8.59
2023-01-08T00:46:52.399Z,8.59
2023-01-08T00:49:21.264Z,8.60
2023-01-08T00:51:49.000Z,8.60
2023-01-08T00:54:16.554Z,8.62
2023-01-08T00:56:44.134Z,8.73
2023-01-08T00:59:11.720Z,8.69
2023-01-08T01:01:39.465Z,8.70
2023-01-08T01:04:07.125Z,8.70
2023-01-08T01:06:35.992Z,8.86
2023-01-08T01:09:03.561Z,8.88
2023-01-08T01:11:31.167Z,8.87
2023-01-08T01:13:58.686Z,8.75
2023-01-08T01:16:26.816Z,8.74
2023-01-08T01:18:56.549Z,8.86
2023-01-08T01:21:26.286Z,8.88
2023-01-08T01:23:56.823Z,8.84
2023-01-08T01:26:24.970Z,8.81
2023-01-08T01:28:54.181Z,8.84
2023-01-08T01:31:22.416Z,8.80
2023-01-08T01:33:50.715Z,8.85
2023-01-08T01:36:19.889Z,8.98
2023-01-08T01:38:48.821Z,9.01
2023-01-08T01:41:25.124Z,8.94
2023-01-08T01:43:52.636Z,8.89
2023-01-08T01:46:25.068Z,8.89
2023-01-08T01:48:54.546Z,8.93
2023-01-08T01:51:22.607Z,8.94
2023-01-08T01:53:50.617Z,8.91
2023-01-08T01:56:19.556Z,9.00
2023-01-08T01:58:47.039Z,9.11
2023-01-08T02:01:14.841Z,9.04
2023-01-08T02:03:42.438Z,9.00
2023-01-08T02:06:17.492Z,9.05
2023-01-08T02:08:52.074Z,9.05
2023-01-08T02:11:38.778Z,9.03
2023-01-08T02:14:09.175Z,8.96
2023-01-08T02:16:41.452Z,9.02
2023-01-08T02:19:15.236Z,9.13
2023-01-08T02:21:51.504Z,9.10
2023-01-08T02:24:25.299Z,9.16
2023-01-08T02:26:54.920Z,9.16
2023-01-08T02:29:24.990Z,9.11
2023-01-08T02:31:52.693Z,9.06
2023-01-08T02:34:20.139Z,8.99
2023-01-08T02:36:48.643Z,9.03
2023-01-08T02:39:23.051Z,8.95
2023-01-08T02:42:01.299Z,8.89
2023-01-08T02:44:37.543Z,8.63
2023-01-08T02:47:07.086Z,8.56
2023-01-08T02:49:36.510Z,8.58
2023-01-08T02:52:05.630Z,8.46
2023-01-08T02:54:35.520Z,8.46
2023-01-08T02:57:08.072Z,8.48
2023-01-08T02:59:36.991Z,8.42
2023-01-08T03:02:04.867Z,8.44
2023-01-08T03:04:36.886Z,8.31
2023-01-08T03:07:04.467Z,8.30
2023-01-08T03:09:32.495Z,8.39
2023-01-08T03:12:03.459Z,8.42
2023-01-08T03:14:38.559Z,8.31
2023-01-08T03:17:08.219Z,8.27
2023-01-08T03:19:39.536Z,8.24
2023-01-08T03:22:09.174Z,8.21
2023-01-08T03:24:38.650Z,8.26
2023-01-08T03:27:08.362Z,8.15
2023-01-08T03:29:37.539Z,8.36
2023-01-08T03:32:07.055Z,8.29
2023-01-08T03:34:37.887Z,8.30
2023-01-08T03:37:08.461Z,8.20
2023-01-08T03:39:41.172Z,8.11
2023-01-08T03:42:11.358Z,8.11
2023-01-08T03:44:40.146Z,8.17
2023-01-08T03:47:09.021Z,8.14
2023-01-08T03:49:37.056Z,8.08
2023-01-08T03:52:04.688Z,8.07
2023-01-08T03:54:33.572Z,8.07
2023-01-08T03:57:01.068Z,8.20
2023-01-08T03:59:28.584Z,8.20
2023-01-08T04:01:57.403Z,8.15
2023-01-08T04:04:24.950Z,8.18
2023-01-08T04:06:53.222Z,8.14
2023-01-08T04:09:20.956Z,8.18
2023-01-08T04:11:48.445Z,8.16
2023-01-08T04:14:15.880Z,8.26
2023-01-08T04:16:43.307Z,8.23
2023-01-08T04:19:13.011Z,8.14
2023-01-08T04:21:40.709Z,8.15
2023-01-08T04:24:08.755Z,8.05
2023-01-08T04:26:36.200Z,8.15
2023-01-08T04:29:03.998Z,8.15
2023-01-08T04:31:31.731Z,8.16
2023-01-08T04:33:59.290Z,8.25
2023-01-08T04:36:28.107Z,8.21
2023-01-08T04:38:55.544Z,8.14
2023-01-08T04:41:23.010Z,8.18
2023-01-08T04:43:50.424Z,8.21
2023-01-08T04:46:17.876Z,8.29
2023-01-08T04:48:45.382Z,8.21
2023-01-08T04:51:12.853Z,8.31
2023-01-08T04:53:41.648Z,8.29
2023-01-08T04:56:10.591Z,8.25
2023-01-08T04:58:38.861Z,8.24
2023-01-08T05:01:11.452Z,8.32
2023-01-08T05:03:38.964Z,8.27
2023-01-08T05:06:07.310Z,8.25
2023-01-08T05:08:34.820Z,8.20
2023-01-08T05:11:04.214Z,8.20
2023-01-08T05:13:31.834Z,8.33
2023-01-08T05:16:00.404Z,8.22
2023-01-08T05:18:28.139Z,8.14
2023-01-08T05:20:55.827Z,8.19
2023-01-08T05:23:23.238Z,8.13
2023-01-08T05:25:50.669Z,8.16
2023-01-08T05:28:19.421Z,8.14
2023-01-08T05:30:46.857Z,8.11
2023-01-08T05:33:14.277Z,8.17
2023-01-08T05:35:41.763Z,8.23
2023-01-08T05:38:09.165Z,8.31
2023-01-08T05:40:36.704Z,8.17
2023-01-08T05:43:05.222Z,8.09
2023-01-08T05:45:34.478Z,8.11
2023-01-08T05:48:05.873Z,8.15
2023-01-08T05:50:33.468Z,8.03
2023-01-08T05:53:00.894Z,7.98
2023-01-08T05:55:28.352Z,8.02
2023-01-08T05:57:55.779Z,8.02
2023-01-08T06:00:24.342Z,8.08
2023-01-08T06:02:53.218Z,8.00
2023-01-08T06:05:20.718Z,8.03
2023-01-08T06:07:48.135Z,8.01
2023-01-08T06:10:15.808Z,7.98
2023-01-08T06:12:43.352Z,8.06
2023-01-08T06:15:12.639Z,8.09
2023-01-08T06:17:40.061Z,8.12
2023-01-08T06:20:10.100Z,8.16
2023-01-08T06:22:37.722Z,8.07
2023-01-08T06:25:05.793Z,8.06
2023-01-08T06:27:33.227Z,8.03
2023-01-08T06:30:00.666Z,8.05
2023-01-08T06:32:28.107Z,8.10
2023-01-08T06:34:55.574Z,8.09
2023-01-08T06:37:24.383Z,8.15
2023-01-08T06:39:51.854Z,8.18
2023-01-08T06:42:19.279Z,8.24
2023-01-08T06:44:46.737Z,8.16
2023-01-08T06:47:14.260Z,8.09
2023-01-08T06:49:41.762Z,8.27
2023-01-08T06:52:09.209Z,8.09
2023-01-08T06:54:37.992Z,8.10
2023-01-08T06:57:05.442Z,8.13
2023-01-08T06:59:32.853Z,8.04
2023-01-08T07:02:00.454Z,8.11
2023-01-08T07:04:27.988Z,8.11
2023-01-08T07:06:55.563Z,8.16
2023-01-08T07:09:22.968Z,8.10
2023-01-08T07:11:54.530Z,7.98
2023-01-08T07:14:22.156Z,7.98
2023-01-08T07:16:49.587Z,7.97
2023-01-08T07:19:17.024Z,7.95
2023-01-08T07:21:44.491Z,8.02
2023-01-08T07:24:12.037Z,7.94
2023-01-08T07:26:40.347Z,7.98
2023-01-08T07:29:09.327Z,8.06
2023-01-08T07:31:36.973Z,8.06
2023-01-08T07:34:04.602Z,7.99
2023-01-08T07:36:32.206Z,7.99
2023-01-08T07:38:59.759Z,8.12
2023-01-08T07:41:27.423Z,7.94
2023-01-08T07:43:54.951Z,7.97
2023-01-08T07:46:23.941Z,7.96
2023-01-08T07:48:51.610Z,7.93
2023-01-08T07:51:20.892Z,8.13
2023-01-08T07:53:48.411Z,8.01
2023-01-08T07:56:16.058Z,8.02
2023-01-08T07:58:43.653Z,7.98
2023-01-08T08:01:12.399Z,7.92
2023-01-08T08:03:41.741Z,7.95
2023-01-08T08:06:09.576Z,7.95
2023-01-08T08:08:37.281Z,8.09
2023-01-08T08:11:05.068Z,8.02
2023-01-08T08:13:32.730Z,8.02
2023-01-08T08:16:03.894Z,8.13
2023-01-08T08:18:31.683Z,8.03
2023-01-08T08:21:00.540Z,8.17
2023-01-08T08:23:28.110Z,8.21
2023-01-08T08:25:55.578Z,8.17
2023-01-08T08:28:23.137Z,8.07
2023-01-08T08:30:52.516Z,8.09
2023-01-08T08:33:20.061Z,8.06
2023-01-08T08:35:50.559Z,8.13
2023-01-08T08:38:19.512Z,8.00
2023-01-08T08:40:47.051Z,7.97
2023-01-08T08:43:14.619Z,7.89
2023-01-08T08:45:42.556Z,8.01
2023-01-08T08:48:12.092Z,8.02
2023-01-08T08:50:39.807Z,8.02
2023-01-08T08:53:07.803Z,8.02
2023-01-08T08:55:36.752Z,8.02
2023-01-08T08:58:06.206Z,8.02
2023-01-08T09:00:34.450Z,8.05
2023-01-08T09:03:02.214Z,8.04
2023-01-08T09:05:30.193Z,8.02
2023-01-08T09:07:58.063Z,8.10
2023-01-08T09:10:25.667Z,8.09
2023-01-08T09:12:55.193Z,8.00
2023-01-08T09:15:23.151Z,8.03
2023-01-08T09:17:55.049Z,8.05
2023-01-08T09:20:22.987Z,8.03
2023-01-08T09:22:50.522Z,8.02
2023-01-08T09:25:18.313Z,8.07
2023-01-08T09:27:45.933Z,8.10
2023-01-08T09:30:14.962Z,8.15
2023-01-08T09:32:42.488Z,8.28
2023-01-08T09:35:10.464Z,8.17
2023-01-08T09:37:38.126Z,8.16
2023-01-08T09:40:06.560Z,8.14
2023-01-08T09:42:35.387Z,8.15
2023-01-08T09:45:03.594Z,8.17
2023-01-08T09:47:35.394Z,8.23
2023-01-08T09:50:05.801Z,8.23
2023-01-08T09:52:33.591Z,8.32
2023-01-08T09:55:01.346Z,8.35
2023-01-08T09:57:29.992Z,8.34
2023-01-08T09:59:57.700Z,8.26
2023-01-08T10:02:26.664Z,8.36
2023-01-08T10:04:57.661Z,8.49
2023-01-08T10:07:26.419Z,8.33
2023-01-08T10:09:54.801Z,8.41
2023-01-08T10:12:27.128Z,8.56
2023-01-08T10:14:56.178Z,8.49
2023-01-08T10:17:28.122Z,8.57
2023-01-08T10:19:56.927Z,8.64
2023-01-08T10:22:25.980Z,8.58
2023-01-08T10:24:53.615Z,8.60
2023-01-08T10:27:23.191Z,8.57
2023-01-08T10:29:51.173Z,8.59
2023-01-08T10:32:20.689Z,8.68
2023-01-08T10:34:50.334Z,8.65
2023-01-08T10:37:24.920Z,8.77
2023-01-08T10:39:53.067Z,8.80
2023-01-08T10:42:22.163Z,8.64
2023-01-08T10:44:55.179Z,8.72
2023-01-08T10:47:23.153Z,8.72
2023-01-08T10:49:50.653Z,8.70
2023-01-08T10:52:27.414Z,8.82
2023-01-08T10:54:55.532Z,8.77
2023-01-08T10:57:25.496Z,8.75
2023-01-08T10:59:53.017Z,8.80
2023-01-08T11:02:30.732Z,8.78
2023-01-08T11:04:59.865Z,8.81
2023-01-08T11:07:29.011Z,9.01
2023-01-08T11:10:53.323Z,8.96
2023-01-08T11:13:20.884Z,9.02
2023-01-08T11:16:01.013Z,9.03
2023-01-08T11:18:29.080Z,9.16
2023-01-08T11:21:09.200Z,9.08
2023-01-08T11:23:38.022Z,9.15
2023-01-08T11:26:08.109Z,9.12
2023-01-08T11:28:45.477Z,9.10
2023-01-08T11:31:15.886Z,9.12
2023-01-08T11:33:43.518Z,9.06
2023-01-08T11:36:16.785Z,8.98
2023-01-08T11:38:45.633Z,8.89
2023-01-08T11:41:25.656Z,8.88
2023-01-08T11:44:05.551Z,8.92
2023-01-08T11:46:38.241Z,8.91
2023-01-08T11:49:22.927Z,9.05
2023-01-08T11:52:01.714Z,9.06
2023-01-08T11:54:42.867Z,9.09
2023-01-08T11:57:19.408Z,9.22
2023-01-08T11:59:57.110Z,9.25
2023-01-08T12:02:32.261Z,9.21
2023-01-08T12:05:26.587Z,9.22
2023-01-08T12:08:01.253Z,9.15
2023-01-08T12:10:38.052Z,9.16
2023-01-08T12:13:26.290Z,9.37
2023-01-08T12:16:03.590Z,9.34
2023-01-08T12:18:37.288Z,9.33
2023-01-08T12:21:12.211Z,9.29
2023-01-08T12:23:50.478Z,9.43
2023-01-08T12:26:28.345Z,9.55
2023-01-08T12:29:33.487Z,9.41
2023-01-08T12:32:21.678Z,9.37
2023-01-08T12:34:55.430Z,9.37
2023-01-08T12:37:28.162Z,9.42
2023-01-08T12:40:02.097Z,9.41
2023-01-08T12:42:31.870Z,9.42
2023-01-08T12:45:01.812Z,9.44
2023-01-08T12:47:32.088Z,9.45
2023-01-08T12:50:09.325Z,9.49
2023-01-08T12:52:41.856Z,9.52
2023-01-08T12:55:18.500Z,9.68
2023-01-08T12:57:51.411Z,9.64
2023-01-08T13:00:24.102Z,9.55
2023-01-08T13:02:55.179Z,9.65
2023-01-08T13:05:34.699Z,9.67
2023-01-08T13:08:04.684Z,9.65
2023-01-08T13:10:37.605Z,9.66
2023-01-08T13:13:07.221Z,9.49
2023-01-08T13:15:35.266Z,9.47
2023-01-08T13:18:08.387Z,9.45
2023-01-08T13:20:36.143Z,9.49
2023-01-08T13:23:05.631Z,9.60
2023-01-08T13:25:35.326Z,9.63
2023-01-08T13:28:06.286Z,9.62
2023-01-08T13:30:40.619Z,9.61
2023-01-08T13:33:37.072Z,9.57
2023-01-08T13:36:23.905Z,9.68
2023-01-08T13:39:02.621Z,9.66
2023-01-08T13:41:31.425Z,9.64
2023-01-08T13:44:05.189Z,9.65
2023-01-08T13:46:36.912Z,9.53
2023-01-08T13:49:05.714Z,9.50
2023-01-08T13:51:40.829Z,9.44
2023-01-08T13:54:19.702Z,9.52
2023-01-08T13:56:48.852Z,9.52
2023-01-08T13:59:22.487Z,9.53
2023-01-08T14:01:55.407Z,9.55
2023-01-08T14:04:23.551Z,9.66
2023-01-08T14:06:51.060Z,9.80
2023-01-08T14:09:22.893Z,9.60
2023-01-08T14:11:51.590Z,9.58
2023-01-08T14:14:21.128Z,9.62
2023-01-08T14:16:49.752Z,9.63
2023-01-08T14:19:21.781Z,9.71
2023-01-08T14:21:50.574Z,9.69
2023-01-08T14:24:19.668Z,9.64
2023-01-08T14:26:53.189Z,9.63
2023-01-08T14:29:22.327Z,9.70
2023-01-08T14:31:51.703Z,9.66
2023-01-08T14:34:21.596Z,9.67
2023-01-08T14:36:50.346Z,9.67
2023-01-08T14:39:23.447Z,9.62
2023-01-08T14:42:09.853Z,9.59
2023-01-08T14:44:42.044Z,9.64
2023-01-08T14:47:16.767Z,9.65
2023-01-08T14:49:56.359Z,9.55
2023-01-08T14:52:26.454Z,9.62
2023-01-08T14:54:56.324Z,9.70
2023-01-08T14:57:24.437Z,9.56
2023-01-08T14:59:56.242Z,9.53
2023-01-08T15:02:28.078Z,9.42
2023-01-08T15:05:05.545Z,9.41
2023-01-08T15:07:33.067Z,9.42
2023-01-08T15:10:02.476Z,9.45
2023-01-08T15:12:32.308Z,9.42
2023-01-08T15:15:10.592Z,9.30
2023-01-08T15:17:41.247Z,9.21
2023-01-08T15:20:17.737Z,9.19
2023-01-08T15:22:46.100Z,9.21
2023-01-08T15:25:17.362Z,9.27
2023-01-08T15:27:53.232Z,9.15
2023-01-08T15:30:25.963Z,9.01
2023-01-08T15:32:53.666Z,9.01
2023-01-08T15:35:25.676Z,9.10
2023-01-08T15:37:53.205Z,8.99
2023-01-08T15:40:20.760Z,8.98
2023-01-08T15:43:11.523Z,8.96
2023-01-08T15:45:40.571Z,9.04
2023-01-08T15:48:08.667Z,8.88
2023-01-08T15:50:38.793Z,8.93
2023-01-08T15:53:08.580Z,8.88
2023-01-08T15:55:37.507Z,8.98
2023-01-08T15:58:05.055Z,8.89
2023-01-08T16:00:33.879Z,8.88
2023-01-08T16:03:01.435Z,8.95
2023-01-08T16:05:30.156Z,9.00
2023-01-08T16:07:59.062Z,8.99
2023-01-08T16:10:28.967Z,9.01
2023-01-08T16:12:56.538Z,8.99
2023-01-08T16:15:24.293Z,8.93
2023-01-08T16:17:52.084Z,9.00
2023-01-08T16:20:19.661Z,9.13
2023-01-08T16:22:47.383Z,9.17
2023-01-08T16:25:16.206Z,9.09
2023-01-08T16:27:43.759Z,9.05
2023-01-08T16:30:14.508Z,9.08
2023-01-08T16:32:42.379Z,9.04
2023-01-08T16:35:10.543Z,9.04
2023-01-08T16:37:38.609Z,8.94
2023-01-08T16:40:07.575Z,9.02
2023-01-08T16:42:36.856Z,9.02
2023-01-08T16:45:05.085Z,9.02
2023-01-08T16:47:32.870Z,8.94
2023-01-08T16:50:00.494Z,8.90
2023-01-08T16:52:28.068Z,8.88
2023-01-08T16:54:55.590Z,8.94
2023-01-08T16:57:23.106Z,8.84
2023-01-08T16:59:52.055Z,8.94
2023-01-08T17:02:20.250Z,8.86
2023-01-08T17:04:47.782Z,8.82
2023-01-08T17:07:15.396Z,8.76
2023-01-08T17:09:43.133Z,8.65
2023-01-08T17:12:10.707Z,8.67
2023-01-08T17:14:38.251Z,8.73
2023-01-08T17:17:07.143Z,8.69
2023-01-08T17:19:34.699Z,8.69
2023-01-08T17:22:02.228Z,8.61
2023-01-08T17:24:29.791Z,8.62
2023-01-08T17:26:58.404Z,8.61
2023-01-08T17:29:26.001Z,8.70
2023-01-08T17:31:53.526Z,8.65
2023-01-08T17:34:22.480Z,8.72
2023-01-08T17:36:50.057Z,8.81
2023-01-08T17:39:18.312Z,8.83
2023-01-08T17:42:03.633Z,8.79
2023-01-08T17:44:31.229Z,8.89
2023-01-08T17:46:58.883Z,8.91
2023-01-08T17:49:27.838Z,8.84
2023-01-08T17:51:56.940Z,8.88
2023-01-08T17:54:25.059Z,8.91
2023-01-08T17:56:53.555Z,8.89
2023-01-08T17:59:21.682Z,8.91
2023-01-08T18:01:49.586Z,8.89
2023-01-08T18:04:17.705Z,8.96
2023-01-08T18:06:46.811Z,8.82
2023-01-08T18:09:14.413Z,8.84
2023-01-08T18:11:43.042Z,8.92
2023-01-08T18:14:11.859Z,8.76
2023-01-08T18:16:39.710Z,8.75
2023-01-08T18:19:07.641Z,8.73
2023-01-08T18:21:35.229Z,8.75
2023-01-08T18:24:04.199Z,8.81
2023-01-08T18:26:31.809Z,8.79
2023-01-08T18:28:59.341Z,8.71
2023-01-08T18:31:26.958Z,8.71
2023-01-08T18:33:54.572Z,8.78
2023-01-08T18:36:22.843Z,8.63
2023-01-08T18:38:50.972Z,8.51
2023-01-08T18:41:34.921Z,8.57
2023-01-08T18:44:02.909Z,8.65
2023-01-08T18:46:30.935Z,8.53
2023-01-08T18:48:58.534Z,8.50
2023-01-08T18:51:26.323Z,8.63
2023-01-08T18:53:55.559Z,8.71
2023-01-08T18:56:28.989Z,8.81
2023-01-08T18:58:56.790Z,8.71
2023-01-08T19:01:24.583Z,8.90
2023-01-08T19:03:52.170Z,8.92
2023-01-08T19:06:19.888Z,8.81
2023-01-08T19:08:47.452Z,8.78
2023-01-08T19:11:15.286Z,8.89
2023-01-08T19:13:44.164Z,8.77
2023-01-08T19:16:14.359Z,8.75
2023-01-08T19:18:42.259Z,8.85
2023-01-08T19:21:13.391Z,8.82
2023-01-08T19:23:41.297Z,8.81
2023-01-08T19:26:09.219Z,8.84
2023-01-08T19:28:37.126Z,8.81
2023-01-08T19:31:06.378Z,8.86
2023-01-08T19:33:33.907Z,8.84
2023-01-08T19:36:03.138Z,8.84
2023-01-08T19:38:30.709Z,8.87
2023-01-08T19:41:00.076Z,8.98
2023-01-08T19:43:42.186Z,8.98
2023-01-08T19:46:11.788Z,8.91
2023-01-08T19:48:40.725Z,8.88
2023-01-08T19:51:09.114Z,8.85
2023-01-08T19:53:36.697Z,8.92
2023-01-08T19:56:05.094Z,8.93
2023-01-08T19:58:32.641Z,9.00
2023-01-08T20:01:00.349Z,9.05
2023-01-08T20:03:29.663Z,9.11
2023-01-08T20:05:57.308Z,9.14
2023-01-08T20:08:24.888Z,9.20
2023-01-08T20:10:52.423Z,9.24
2023-01-08T20:13:20.076Z,9.15
2023-01-08T20:15:56.449Z,8.89
2023-01-08T20:18:23.986Z,8.81
2023-01-08T20:20:52.984Z,8.82
2023-01-08T20:23:20.947Z,8.91
2023-01-08T20:25:49.229Z,8.87
2023-01-08T20:28:16.778Z,8.86
2023-01-08T20:30:44.400Z,8.93
2023-01-08T20:33:13.044Z,9.03
2023-01-08T20:35:43.112Z,9.09
2023-01-08T20:38:12.083Z,9.13
2023-01-08T20:40:39.637Z,9.14
2023-01-08T20:43:07.195Z,9.14
2023-01-08T20:45:34.769Z,9.11
2023-01-08T20:48:02.319Z,9.10
2023-01-08T20:50:29.926Z,9.16
2023-01-08T20:52:57.460Z,9.13
2023-01-08T20:55:26.429Z,9.15
2023-01-08T20:57:53.966Z,9.16
2023-01-08T21:00:22.074Z,9.18
2023-01-08T21:02:49.675Z,9.15
2023-01-08T21:05:17.284Z,9.12
2023-01-08T21:07:44.864Z,9.10
2023-01-08T21:10:13.030Z,9.03
2023-01-08T21:12:44.613Z,8.98
2023-01-08T21:15:12.778Z,8.97
2023-01-08T21:17:40.529Z,8.81
2023-01-08T21:20:09.199Z,8.73
2023-01-08T21:22:36.963Z,8.70
2023-01-08T21:25:06.047Z,8.60
2023-01-08T21:27:33.605Z,8.61
2023-01-08T21:30:03.925Z,8.70
2023-01-08T21:32:31.682Z,8.80
2023-01-08T21:34:59.275Z,8.88
2023-01-08T21:37:26.815Z,8.92
2023-01-08T21:39:54.357Z,8.91
2023-01-08T21:42:39.585Z,8.99
2023-01-08T21:45:29.358Z,8.97
2023-01-08T21:47:58.664Z,9.01
2023-01-08T21:50:26.487Z,9.03
2023-01-08T21:53:11.730Z,8.92
2023-01-08T21:55:39.554Z,8.88
2023-01-08T21:58:07.079Z,9.06
2023-01-08T22:00:36.037Z,9.20
2023-01-08T22:03:03.718Z,9.30
2023-01-08T22:05:31.337Z,9.07
2023-01-08T22:07:58.901Z,9.13
2023-01-08T22:10:26.416Z,9.30
2023-01-08T22:12:53.866Z,9.30
2023-01-08T22:15:21.309Z,9.39
2023-01-08T22:17:50.114Z,9.34
2023-01-08T22:20:17.980Z,9.28
2023-01-08T22:22:47.081Z,9.25
2023-01-08T22:25:14.782Z,9.13
2023-01-08T22:27:42.609Z,9.08
2023-01-08T22:30:11.593Z,8.91
2023-01-08T22:32:39.261Z,8.84
2023-01-08T22:35:08.682Z,8.77
2023-01-08T22:37:36.693Z,8.93
2023-01-08T22:40:04.467Z,8.92
2023-01-08T22:42:32.047Z,8.83
2023-01-08T22:44:59.565Z,8.87
2023-01-08T22:47:27.171Z,8.93
2023-01-08T22:49:54.710Z,8.86
2023-01-08T22:52:23.703Z,8.82
2023-01-08T22:54:54.188Z,8.76
2023-01-08T22:57:21.749Z,8.81
2023-01-08T22:59:49.369Z,8.85
2023-01-08T23:02:24.028Z,8.76
2023-01-08T23:04:51.844Z,8.49
2023-01-08T23:07:19.964Z,8.25
2023-01-08T23:09:49.188Z,8.12
2023-01-08T23:12:16.749Z,8.18
2023-01-08T23:14:44.392Z,8.17
2023-01-08T23:17:12.037Z,8.09
2023-01-08T23:19:39.663Z,8.01
2023-01-08T23:22:07.219Z,7.93
2023-01-08T23:24:34.845Z,7.88
2023-01-08T23:27:03.815Z,7.82
2023-01-08T23:29:32.045Z,7.88
2023-01-08T23:31:59.738Z,7.83
2023-01-08T23:34:28.642Z,7.81
2023-01-08T23:36:56.126Z,7.86
2023-01-08T23:39:26.567Z,7.96
2023-01-08T23:41:54.219Z,8.09
2023-01-08T23:44:23.361Z,8.12
2023-01-08T23:46:54.453Z,8.06
2023-01-08T23:49:22.190Z,8.03
2023-01-08T23:51:49.782Z,7.92
2023-01-08T23:54:26.171Z,7.94
2023-01-08T23:56:54.024Z,8.01
2023-01-08T23:59:22.832Z,8.00
